PPM weather

Pompano Beach Airpark
Pompano Beach, Florida, United States

Public forecast

Using degrees Fahrenheit for public forecast. Weather courtesy of forecast.io.

Current aviation weather report (METAR) for Pompano Beach Airpark

Retrieved 2019/10/21 05:53 UTC (8 minutes ago):

KPMP 210553Z AUTO 00000KT 10SM FEW095 27/24 A2996 RMK AO2 SLP146 T02720239 10300 20272 58009

Closest aviation forecast (TAF) to Pompano Beach Airpark

Closest forecast is Fort Lauderdale Executive Airport, 4.4 nm (8.1 km) SW. Retrieved 2019/10/21 06:39 UTC (0 seconds ago):

TAF KFXE 210536Z 2106/2206 VRB03KT P6SM FEW050 SCT250 FM211400 14008KT P6SM SCT035 BKN050 FM220200 VRB03KT P6SM FEW030